sensor_id;sensor_type;location;lat;lon;timestamp;pressure;altitude;pressure_sealevel;temperature;humidity
84671;BME280;74898;42.716;23.624;2024-03-17T00:00:14;95124.38;;;2.46;84.36
84671;BME280;74898;42.716;23.624;2024-03-17T00:02:41;95129.59;;;2.36;84.50
84671;BME280;74898;42.716;23.624;2024-03-17T00:05:07;95121.09;;;2.35;84.14
84671;BME280;74898;42.716;23.624;2024-03-17T00:07:32;95123.66;;;2.35;84.79
84671;BME280;74898;42.716;23.624;2024-03-17T00:09:58;95120.59;;;2.32;84.02
84671;BME280;74898;42.716;23.624;2024-03-17T00:12:24;95124.38;;;2.28;85.74
84671;BME280;74898;42.716;23.624;2024-03-17T00:14:49;95118.66;;;2.26;85.56
84671;BME280;74898;42.716;23.624;2024-03-17T00:17:15;95117.09;;;2.15;84.92
84671;BME280;74898;42.716;23.624;2024-03-17T00:19:41;95115.78;;;2.11;86.35
84671;BME280;74898;42.716;23.624;2024-03-17T00:22:06;95118.47;;;2.09;85.95
84671;BME280;74898;42.716;23.624;2024-03-17T00:24:36;95107.16;;;2.12;85.18
84671;BME280;74898;42.716;23.624;2024-03-17T00:27:02;95104.84;;;2.01;84.79
84671;BME280;74898;42.716;23.624;2024-03-17T00:29:28;95102.28;;;2.01;84.61
84671;BME280;74898;42.716;23.624;2024-03-17T00:31:54;95102.56;;;1.98;85.26
84671;BME280;74898;42.716;23.624;2024-03-17T00:34:19;95103.53;;;1.97;85.53
84671;BME280;74898;42.716;23.624;2024-03-17T00:36:45;95103.00;;;1.93;86.04
84671;BME280;74898;42.716;23.624;2024-03-17T00:39:11;95100.06;;;1.88;85.69
84671;BME280;74898;42.716;23.624;2024-03-17T00:41:37;95099.94;;;1.89;85.29
84671;BME280;74898;42.716;23.624;2024-03-17T00:44:04;95101.03;;;1.87;85.65
84671;BME280;74898;42.716;23.624;2024-03-17T00:46:29;95097.31;;;1.81;85.27
84671;BME280;74898;42.716;23.624;2024-03-17T00:48:55;95106.84;;;1.79;85.63
84671;BME280;74898;42.716;23.624;2024-03-17T00:51:21;95103.38;;;1.70;85.33
84671;BME280;74898;42.716;23.624;2024-03-17T00:53:47;95100.47;;;1.65;86.69
84671;BME280;74898;42.716;23.624;2024-03-17T00:56:12;95107.47;;;1.63;87.74
84671;BME280;74898;42.716;23.624;2024-03-17T00:58:38;95099.25;;;1.69;87.13
84671;BME280;74898;42.716;23.624;2024-03-17T01:01:04;95099.44;;;1.58;87.60
84671;BME280;74898;42.716;23.624;2024-03-17T01:03:29;95101.03;;;1.59;87.29
84671;BME280;74898;42.716;23.624;2024-03-17T01:05:55;95103.59;;;1.59;86.46
84671;BME280;74898;42.716;23.624;2024-03-17T01:08:20;95099.34;;;1.50;86.19
84671;BME280;74898;42.716;23.624;2024-03-17T01:10:47;95095.31;;;1.47;87.47
84671;BME280;74898;42.716;23.624;2024-03-17T01:13:16;95101.50;;;1.45;87.22
84671;BME280;74898;42.716;23.624;2024-03-17T01:15:42;95104.34;;;1.42;88.04
84671;BME280;74898;42.716;23.624;2024-03-17T01:18:08;95105.72;;;1.36;88.07
84671;BME280;74898;42.716;23.624;2024-03-17T01:20:35;95102.75;;;1.41;86.72
84671;BME280;74898;42.716;23.624;2024-03-17T01:23:01;95101.56;;;1.35;88.42
84671;BME280;74898;42.716;23.624;2024-03-17T01:25:27;95099.28;;;1.32;87.12
84671;BME280;74898;42.716;23.624;2024-03-17T01:27:54;95099.28;;;1.32;87.90
84671;BME280;74898;42.716;23.624;2024-03-17T01:30:20;95100.75;;;1.35;87.46
84671;BME280;74898;42.716;23.624;2024-03-17T01:32:46;95096.44;;;1.35;87.60
84671;BME280;74898;42.716;23.624;2024-03-17T01:35:12;95095.66;;;1.35;86.96
84671;BME280;74898;42.716;23.624;2024-03-17T01:37:38;95091.53;;;1.24;88.27
84671;BME280;74898;42.716;23.624;2024-03-17T01:40:04;95096.25;;;1.19;88.95
84671;BME280;74898;42.716;23.624;2024-03-17T01:42:37;95096.34;;;1.27;87.46
84671;BME280;74898;42.716;23.624;2024-03-17T01:45:31;95094.50;;;1.19;88.04
84671;BME280;74898;42.716;23.624;2024-03-17T01:48:00;95091.84;;;1.21;87.80
84671;BME280;74898;42.716;23.624;2024-03-17T01:50:32;95091.84;;;1.21;88.49
84671;BME280;74898;42.716;23.624;2024-03-17T01:53:01;95102.41;;;1.26;88.21
84671;BME280;74898;42.716;23.624;2024-03-17T01:55:27;95106.88;;;1.14;88.64
84671;BME280;74898;42.716;23.624;2024-03-17T01:57:53;95099.81;;;1.08;88.62
84671;BME280;74898;42.716;23.624;2024-03-17T02:00:20;95090.91;;;1.12;87.88
84671;BME280;74898;42.716;23.624;2024-03-17T02:02:46;95095.19;;;1.21;88.51
84671;BME280;74898;42.716;23.624;2024-03-17T02:05:13;95096.09;;;1.20;88.84
84671;BME280;74898;42.716;23.624;2024-03-17T02:07:39;95097.56;;;1.23;87.65
84671;BME280;74898;42.716;23.624;2024-03-17T02:10:04;95092.06;;;1.27;87.88
84671;BME280;74898;42.716;23.624;2024-03-17T02:12:31;95088.66;;;1.09;89.38
84671;BME280;74898;42.716;23.624;2024-03-17T02:14:58;95094.63;;;1.18;88.91
84671;BME280;74898;42.716;23.624;2024-03-17T02:17:24;95094.00;;;1.16;87.81
84671;BME280;74898;42.716;23.624;2024-03-17T02:19:51;95099.34;;;1.13;88.58
84671;BME280;74898;42.716;23.624;2024-03-17T02:22:17;95090.09;;;1.21;88.44
84671;BME280;74898;42.716;23.624;2024-03-17T02:24:43;95096.09;;;1.20;88.49
84671;BME280;74898;42.716;23.624;2024-03-17T02:27:09;95092.75;;;1.20;87.97
84671;BME280;74898;42.716;23.624;2024-03-17T02:29:35;95091.00;;;1.20;88.06
84671;BME280;74898;42.716;23.624;2024-03-17T02:32:07;95091.84;;;1.21;88.29
84671;BME280;74898;42.716;23.624;2024-03-17T02:34:37;95089.13;;;1.22;89.01
84671;BME280;74898;42.716;23.624;2024-03-17T02:37:04;95090.78;;;1.14;88.58
84671;BME280;74898;42.716;23.624;2024-03-17T02:39:31;95083.13;;;1.14;87.82
84671;BME280;74898;42.716;23.624;2024-03-17T02:42:17;95092.66;;;1.12;87.41
84671;BME280;74898;42.716;23.624;2024-03-17T02:44:43;95089.16;;;1.13;87.75
84671;BME280;74898;42.716;23.624;2024-03-17T02:47:08;95081.00;;;1.09;87.71
84671;BME280;74898;42.716;23.624;2024-03-17T02:49:35;95078.72;;;1.06;87.70
84671;BME280;74898;42.716;23.624;2024-03-17T02:52:06;95085.03;;;1.02;88.70
84671;BME280;74898;42.716;23.624;2024-03-17T02:54:35;95088.16;;;0.96;89.36
84671;BME280;74898;42.716;23.624;2024-03-17T02:57:01;95086.41;;;0.96;88.07
84671;BME280;74898;42.716;23.624;2024-03-17T02:59:27;95085.22;;;0.91;88.20
84671;BME280;74898;42.716;23.624;2024-03-17T03:01:52;95086.72;;;0.83;87.63
84671;BME280;74898;42.716;23.624;2024-03-17T03:04:18;95091.94;;;0.82;87.47
84671;BME280;74898;42.716;23.624;2024-03-17T03:06:43;95090.88;;;0.75;89.03
84671;BME280;74898;42.716;23.624;2024-03-17T03:09:09;95096.38;;;0.70;88.62
84671;BME280;74898;42.716;23.624;2024-03-17T03:11:40;95090.63;;;0.78;88.32
84671;BME280;74898;42.716;23.624;2024-03-17T03:14:06;95091.84;;;0.74;88.41
84671;BME280;74898;42.716;23.624;2024-03-17T03:16:32;95089.56;;;0.71;88.50
84671;BME280;74898;42.716;23.624;2024-03-17T03:18:59;95093.34;;;0.57;88.21
84671;BME280;74898;42.716;23.624;2024-03-17T03:21:25;95094.97;;;0.58;89.15
84671;BME280;74898;42.716;23.624;2024-03-17T03:23:51;95096.56;;;0.59;87.74
84671;BME280;74898;42.716;23.624;2024-03-17T03:26:17;95087.72;;;0.63;88.97
84671;BME280;74898;42.716;23.624;2024-03-17T03:28:43;95083.41;;;0.54;88.34
84671;BME280;74898;42.716;23.624;2024-03-17T03:31:12;95079.00;;;0.56;87.29
84671;BME280;74898;42.716;23.624;2024-03-17T03:33:41;95092.41;;;0.48;88.22
84671;BME280;74898;42.716;23.624;2024-03-17T03:36:11;95092.53;;;0.47;87.87
84671;BME280;74898;42.716;23.624;2024-03-17T03:38:37;95091.34;;;0.51;88.00
84671;BME280;74898;42.716;23.624;2024-03-17T03:41:07;95096.84;;;0.36;88.96
84671;BME280;74898;42.716;23.624;2024-03-17T03:43:33;95097.78;;;0.35;88.08
84671;BME280;74898;42.716;23.624;2024-03-17T03:45:59;95101.94;;;0.36;88.46
84671;BME280;74898;42.716;23.624;2024-03-17T03:48:25;95106.34;;;0.44;89.39
84671;BME280;74898;42.716;23.624;2024-03-17T03:50:51;95104.59;;;0.45;88.69
84671;BME280;74898;42.716;23.624;2024-03-17T03:53:16;95108.63;;;0.47;88.23
84671;BME280;74898;42.716;23.624;2024-03-17T03:55:42;95111.44;;;0.34;89.08
84671;BME280;74898;42.716;23.624;2024-03-17T03:58:08;95116.94;;;0.39;88.77
84671;BME280;74898;42.716;23.624;2024-03-17T04:00:34;95115.88;;;0.32;88.99
84671;BME280;74898;42.716;23.624;2024-03-17T04:03:00;95115.47;;;0.27;88.32
84671;BME280;74898;42.716;23.624;2024-03-17T04:05:27;95116.69;;;0.13;88.32
84671;BME280;74898;42.716;23.624;2024-03-17T04:07:53;95120.31;;;0.11;88.40
84671;BME280;74898;42.716;23.624;2024-03-17T04:10:19;95120.31;;;0.11;88.67
84671;BME280;74898;42.716;23.624;2024-03-17T04:12:46;95119.75;;;0.07;88.37
84671;BME280;74898;42.716;23.624;2024-03-17T04:15:11;95124.03;;;0.07;88.78
84671;BME280;74898;42.716;23.624;2024-03-17T04:17:37;95127.16;;;0.10;89.88
84671;BME280;74898;42.716;23.624;2024-03-17T04:20:04;95131.97;;;0.13;88.51
84671;BME280;74898;42.716;23.624;2024-03-17T04:22:33;95133.28;;;0.17;88.59
84671;BME280;74898;42.716;23.624;2024-03-17T04:25:01;95126.47;;;0.18;89.51
84671;BME280;74898;42.716;23.624;2024-03-17T04:27:27;95134.25;;;0.26;89.96
84671;BME280;74898;42.716;23.624;2024-03-17T04:29:54;95133.16;;;0.19;88.91
84671;BME280;74898;42.716;23.624;2024-03-17T04:32:21;95138.38;;;0.17;89.81
84671;BME280;74898;42.716;23.624;2024-03-17T04:34:47;95137.34;;;0.10;89.74
84671;BME280;74898;42.716;23.624;2024-03-17T04:37:13;95141.34;;;0.13;89.12
84671;BME280;74898;42.716;23.624;2024-03-17T04:39:43;95151.53;;;0.13;88.51
84671;BME280;74898;42.716;23.624;2024-03-17T04:42:11;95151.25;;;0.16;89.92
84671;BME280;74898;42.716;23.624;2024-03-17T04:44:37;95152.47;;;0.12;88.60
84671;BME280;74898;42.716;23.624;2024-03-17T04:47:04;95158.91;;;0.16;87.82
84671;BME280;74898;42.716;23.624;2024-03-17T04:49:39;95161.19;;;0.19;87.82
84671;BME280;74898;42.716;23.624;2024-03-17T04:52:05;95164.00;;;0.16;89.07
84671;BME280;74898;42.716;23.624;2024-03-17T04:54:33;95169.78;;;0.28;89.91
84671;BME280;74898;42.716;23.624;2024-03-17T04:57:00;95175.00;;;0.36;88.99
84671;BME280;74898;42.716;23.624;2024-03-17T04:59:27;95177.41;;;0.47;88.78
84671;BME280;74898;42.716;23.624;2024-03-17T05:01:54;95182.09;;;0.52;87.74
84671;BME280;74898;42.716;23.624;2024-03-17T05:04:20;95178.75;;;0.61;88.00
84671;BME280;74898;42.716;23.624;2024-03-17T05:06:46;95176.63;;;0.76;86.91
84671;BME280;74898;42.716;23.624;2024-03-17T05:09:18;95177.41;;;0.86;87.76
84671;BME280;74898;42.716;23.624;2024-03-17T05:11:44;95172.13;;;0.97;87.41
84671;BME280;74898;42.716;23.624;2024-03-17T05:14:10;95180.84;;;1.14;87.49
84671;BME280;74898;42.716;23.624;2024-03-17T05:16:36;95171.97;;;1.28;87.83
84671;BME280;74898;42.716;23.624;2024-03-17T05:19:01;95185.44;;;1.48;87.35
84671;BME280;74898;42.716;23.624;2024-03-17T05:21:27;95186.31;;;1.66;85.70
84671;BME280;74898;42.716;23.624;2024-03-17T05:23:57;95186.28;;;1.76;85.32
84671;BME280;74898;42.716;23.624;2024-03-17T05:26:23;95190.47;;;1.95;85.68
84671;BME280;74898;42.716;23.624;2024-03-17T05:28:49;95193.28;;;2.20;83.90
84671;BME280;74898;42.716;23.624;2024-03-17T05:31:15;95191.66;;;2.46;84.70
84671;BME280;74898;42.716;23.624;2024-03-17T05:33:45;95198.34;;;2.65;84.00
84671;BME280;74898;42.716;23.624;2024-03-17T05:36:11;95193.69;;;2.78;82.68
84671;BME280;74898;42.716;23.624;2024-03-17T05:38:36;95199.50;;;3.07;82.70
84671;BME280;74898;42.716;23.624;2024-03-17T05:41:04;95194.72;;;3.38;81.99
84671;BME280;74898;42.716;23.624;2024-03-17T05:43:38;95184.53;;;3.72;80.67
84671;BME280;74898;42.716;23.624;2024-03-17T05:46:10;95194.31;;;3.77;79.31
84671;BME280;74898;42.716;23.624;2024-03-17T05:48:40;95192.38;;;4.21;80.43
84671;BME280;74898;42.716;23.624;2024-03-17T05:51:06;95192.06;;;4.24;78.11
84671;BME280;74898;42.716;23.624;2024-03-17T05:53:32;95194.84;;;4.64;77.56
84671;BME280;74898;42.716;23.624;2024-03-17T05:56:03;95192.16;;;5.06;77.88
84671;BME280;74898;42.716;23.624;2024-03-17T05:58:30;95195.16;;;5.43;75.23
84671;BME280;74898;42.716;23.624;2024-03-17T06:00:55;95192.22;;;5.70;75.29
84671;BME280;74898;42.716;23.624;2024-03-17T06:03:21;95183.00;;;5.92;72.46
84671;BME280;74898;42.716;23.624;2024-03-17T06:05:47;95194.53;;;6.04;73.03
84671;BME280;74898;42.716;23.624;2024-03-17T06:08:13;95190.09;;;6.21;72.82
84671;BME280;74898;42.716;23.624;2024-03-17T06:10:44;95198.53;;;6.38;71.93
84671;BME280;74898;42.716;23.624;2024-03-17T06:13:10;95205.31;;;6.62;71.12
84671;BME280;74898;42.716;23.624;2024-03-17T06:15:39;95198.56;;;6.84;69.67
84671;BME280;74898;42.716;23.624;2024-03-17T06:18:05;95203.13;;;6.74;70.52
84671;BME280;74898;42.716;23.624;2024-03-17T06:20:34;95208.25;;;6.82;71.11
84671;BME280;74898;42.716;23.624;2024-03-17T06:23:00;95206.81;;;7.03;70.12
84671;BME280;74898;42.716;23.624;2024-03-17T06:25:25;95211.56;;;7.29;69.59
84671;BME280;74898;42.716;23.624;2024-03-17T06:27:52;95210.91;;;7.50;69.00
84671;BME280;74898;42.716;23.624;2024-03-17T06:30:18;95213.31;;;7.66;67.58
84671;BME280;74898;42.716;23.624;2024-03-17T06:32:45;95215.25;;;7.64;67.57
84671;BME280;74898;42.716;23.624;2024-03-17T06:35:12;95217.22;;;7.92;67.57
84671;BME280;74898;42.716;23.624;2024-03-17T06:37:41;95214.22;;;8.03;66.20
84671;BME280;74898;42.716;23.624;2024-03-17T06:40:16;95225.84;;;8.14;66.77
84671;BME280;74898;42.716;23.624;2024-03-17T06:42:43;95225.56;;;8.23;66.23
84671;BME280;74898;42.716;23.624;2024-03-17T06:45:09;95230.53;;;8.40;64.66
84671;BME280;74898;42.716;23.624;2024-03-17T06:47:35;95226.22;;;8.40;64.68
84671;BME280;74898;42.716;23.624;2024-03-17T06:50:02;95229.31;;;8.21;65.37
84671;BME280;74898;42.716;23.624;2024-03-17T06:52:28;95231.34;;;8.26;65.79
84671;BME280;74898;42.716;23.624;2024-03-17T06:54:54;95230.56;;;8.10;65.64
84671;BME280;74898;42.716;23.624;2024-03-17T06:57:19;95231.88;;;7.62;66.36
84671;BME280;74898;42.716;23.624;2024-03-17T06:59:46;95228.78;;;7.66;68.13
84671;BME280;74898;42.716;23.624;2024-03-17T07:02:13;95229.28;;;7.47;67.57
84671;BME280;74898;42.716;23.624;2024-03-17T07:04:43;95225.69;;;7.18;68.57
84671;BME280;74898;42.716;23.624;2024-03-17T07:07:09;95225.78;;;7.25;69.35
84671;BME280;74898;42.716;23.624;2024-03-17T07:09:35;95228.66;;;7.45;68.22
84671;BME280;74898;42.716;23.624;2024-03-17T07:12:00;95226.91;;;7.60;69.44
84671;BME280;74898;42.716;23.624;2024-03-17T07:14:26;95229.03;;;7.56;69.66
84671;BME280;74898;42.716;23.624;2024-03-17T07:16:52;95232.94;;;7.67;68.79
84671;BME280;74898;42.716;23.624;2024-03-17T07:19:18;95224.25;;;7.68;70.14
84671;BME280;74898;42.716;23.624;2024-03-17T07:21:44;95221.84;;;7.96;69.68
84671;BME280;74898;42.716;23.624;2024-03-17T07:24:09;95227.00;;;8.11;69.20
84671;BME280;74898;42.716;23.624;2024-03-17T07:26:35;95223.28;;;7.84;67.03
84671;BME280;74898;42.716;23.624;2024-03-17T07:29:01;95229.41;;;7.83;67.48
84671;BME280;74898;42.716;23.624;2024-03-17T07:31:26;95223.47;;;7.83;68.54
84671;BME280;74898;42.716;23.624;2024-03-17T07:33:52;95228.34;;;8.07;67.54
84671;BME280;74898;42.716;23.624;2024-03-17T07:36:17;95226.53;;;8.22;68.53
84671;BME280;74898;42.716;23.624;2024-03-17T07:38:43;95221.84;;;8.26;67.64
84671;BME280;74898;42.716;23.624;2024-03-17T07:41:09;95231.78;;;8.44;68.85
84671;BME280;74898;42.716;23.624;2024-03-17T07:43:37;95221.28;;;8.60;66.35
84671;BME280;74898;42.716;23.624;2024-03-17T07:46:11;95222.50;;;8.64;65.35
84671;BME280;74898;42.716;23.624;2024-03-17T07:48:41;95218.31;;;8.85;65.60
84671;BME280;74898;42.716;23.624;2024-03-17T07:51:09;95226.06;;;8.85;66.51
84671;BME280;74898;42.716;23.624;2024-03-17T07:53:37;95214.66;;;8.94;66.86
84671;BME280;74898;42.716;23.624;2024-03-17T07:56:05;95214.19;;;9.12;66.40
84671;BME280;74898;42.716;23.624;2024-03-17T07:58:32;95217.41;;;9.36;64.63
84671;BME280;74898;42.716;23.624;2024-03-17T08:01:00;95213.03;;;9.36;65.26
84671;BME280;74898;42.716;23.624;2024-03-17T08:03:27;95222.75;;;9.62;65.64
84671;BME280;74898;42.716;23.624;2024-03-17T08:05:53;95215.22;;;9.67;65.48
84671;BME280;74898;42.716;23.624;2024-03-17T08:08:19;95218.91;;;9.51;64.51
84671;BME280;74898;42.716;23.624;2024-03-17T08:10:44;95216.22;;;9.66;64.78
84671;BME280;74898;42.716;23.624;2024-03-17T08:13:13;95202.50;;;9.72;65.03
84671;BME280;74898;42.716;23.624;2024-03-17T08:15:41;95205.88;;;10.01;65.85
84671;BME280;74898;42.716;23.624;2024-03-17T08:18:07;95203.50;;;10.06;65.56
84671;BME280;74898;42.716;23.624;2024-03-17T08:20:37;95202.72;;;10.06;64.58
84671;BME280;74898;42.716;23.624;2024-03-17T08:23:04;95195.53;;;10.08;63.88
84671;BME280;74898;42.716;23.624;2024-03-17T08:25:31;95195.88;;;9.98;64.27
84671;BME280;74898;42.716;23.624;2024-03-17T08:27:57;95190.38;;;10.08;62.99
84671;BME280;74898;42.716;23.624;2024-03-17T08:30:22;95187.56;;;10.03;63.09
84671;BME280;74898;42.716;23.624;2024-03-17T08:32:48;95183.78;;;10.47;63.62
84671;BME280;74898;42.716;23.624;2024-03-17T08:35:14;95192.31;;;10.41;62.97
84671;BME280;74898;42.716;23.624;2024-03-17T08:37:40;95183.19;;;10.45;63.61
84671;BME280;74898;42.716;23.624;2024-03-17T08:40:06;95181.22;;;10.53;62.77
84671;BME280;74898;42.716;23.624;2024-03-17T08:42:32;95184.94;;;10.37;62.25
84671;BME280;74898;42.716;23.624;2024-03-17T08:44:58;95181.81;;;10.49;61.71
84671;BME280;74898;42.716;23.624;2024-03-17T08:47:23;95179.25;;;10.62;62.08
84671;BME280;74898;42.716;23.624;2024-03-17T08:49:52;95177.91;;;10.86;60.81
84671;BME280;74898;42.716;23.624;2024-03-17T08:52:18;95179.91;;;11.11;59.79
84671;BME280;74898;42.716;23.624;2024-03-17T08:54:47;95177.31;;;11.17;58.81
84671;BME280;74898;42.716;23.624;2024-03-17T08:57:14;95169.34;;;10.99;57.37
84671;BME280;74898;42.716;23.624;2024-03-17T08:59:39;95168.56;;;10.98;59.54
84671;BME280;74898;42.716;23.624;2024-03-17T09:02:05;95162.56;;;10.98;59.85
84671;BME280;74898;42.716;23.624;2024-03-17T09:04:31;95160.38;;;11.15;58.97
84671;BME280;74898;42.716;23.624;2024-03-17T09:06:57;95162.53;;;11.38;58.07
84671;BME280;74898;42.716;23.624;2024-03-17T09:09:23;95158.53;;;11.55;57.69
84671;BME280;74898;42.716;23.624;2024-03-17T09:11:48;95161.91;;;11.62;55.86
84671;BME280;74898;42.716;23.624;2024-03-17T09:14:14;95155.81;;;12.15;55.83
84671;BME280;74898;42.716;23.624;2024-03-17T09:16:40;95160.63;;;12.05;57.30
84671;BME280;74898;42.716;23.624;2024-03-17T09:19:05;95165.16;;;12.61;57.31
84671;BME280;74898;42.716;23.624;2024-03-17T09:21:31;95159.38;;;12.91;55.40
84671;BME280;74898;42.716;23.624;2024-03-17T09:23:56;95148.38;;;13.46;54.39
84671;BME280;74898;42.716;23.624;2024-03-17T09:26:22;95150.81;;;12.90;51.24
84671;BME280;74898;42.716;23.624;2024-03-17T09:28:47;95152.44;;;12.53;53.69
84671;BME280;74898;42.716;23.624;2024-03-17T09:31:13;95153.50;;;12.39;53.53
84671;BME280;74898;42.716;23.624;2024-03-17T09:33:39;95153.44;;;12.07;52.88
84671;BME280;74898;42.716;23.624;2024-03-17T09:36:06;95145.72;;;11.87;55.46
84671;BME280;74898;42.716;23.624;2024-03-17T09:38:33;95144.09;;;11.93;54.83
84671;BME280;74898;42.716;23.624;2024-03-17T09:41:00;95145.69;;;12.39;54.18
84671;BME280;74898;42.716;23.624;2024-03-17T09:43:34;95145.28;;;12.80;54.40
84671;BME280;74898;42.716;23.624;2024-03-17T09:46:04;95141.28;;;13.09;52.26
84671;BME280;74898;42.716;23.624;2024-03-17T09:48:30;95137.31;;;13.32;52.59
84671;BME280;74898;42.716;23.624;2024-03-17T09:50:58;95132.53;;;13.29;52.44
84671;BME280;74898;42.716;23.624;2024-03-17T09:53:32;95133.19;;;12.92;51.01
84671;BME280;74898;42.716;23.624;2024-03-17T09:56:11;95135.16;;;12.97;52.56
84671;BME280;74898;42.716;23.624;2024-03-17T09:58:39;95129.16;;;12.96;52.88
84671;BME280;74898;42.716;23.624;2024-03-17T10:01:05;95131.50;;;13.05;52.36
84671;BME280;74898;42.716;23.624;2024-03-17T10:03:42;95131.88;;;13.33;51.79
84671;BME280;74898;42.716;23.624;2024-03-17T10:06:11;95133.94;;;13.25;52.47
84671;BME280;74898;42.716;23.624;2024-03-17T10:08:44;95131.25;;;13.13;51.67
84671;BME280;74898;42.716;23.624;2024-03-17T10:11:12;95135.25;;;13.09;52.45
84671;BME280;74898;42.716;23.624;2024-03-17T10:13:39;95127.88;;;13.56;50.57
84671;BME280;74898;42.716;23.624;2024-03-17T10:16:05;95132.56;;;13.84;50.48
84671;BME280;74898;42.716;23.624;2024-03-17T10:18:31;95131.50;;;13.92;47.81
84671;BME280;74898;42.716;23.624;2024-03-17T10:20:57;95127.81;;;13.99;50.04
84671;BME280;74898;42.716;23.624;2024-03-17T10:23:24;95122.78;;;14.16;50.56
84671;BME280;74898;42.716;23.624;2024-03-17T10:25:50;95124.53;;;14.53;49.23
84671;BME280;74898;42.716;23.624;2024-03-17T10:28:17;95130.50;;;14.60;48.56
84671;BME280;74898;42.716;23.624;2024-03-17T10:30:59;95120.13;;;14.83;49.84
84671;BME280;74898;42.716;23.624;2024-03-17T10:33:26;95120.53;;;14.68;47.64
84671;BME280;74898;42.716;23.624;2024-03-17T10:35:59;95123.00;;;14.63;49.12
84671;BME280;74898;42.716;23.624;2024-03-17T10:38:26;95125.84;;;15.16;45.35
84671;BME280;74898;42.716;23.624;2024-03-17T10:40:55;95117.09;;;15.10;45.75
84671;BME280;74898;42.716;23.624;2024-03-17T10:43:21;95119.34;;;15.06;45.63
84671;BME280;74898;42.716;23.624;2024-03-17T10:45:53;95119.00;;;15.15;45.56
84671;BME280;74898;42.716;23.624;2024-03-17T10:48:20;95125.25;;;15.02;45.23
84671;BME280;74898;42.716;23.624;2024-03-17T10:50:49;95115.81;;;14.77;45.31
84671;BME280;74898;42.716;23.624;2024-03-17T10:53:19;95117.19;;;14.31;46.08
84671;BME280;74898;42.716;23.624;2024-03-17T10:56:00;95117.59;;;14.16;47.72
84671;BME280;74898;42.716;23.624;2024-03-17T10:58:36;95117.72;;;14.21;47.97
84671;BME280;74898;42.716;23.624;2024-03-17T11:01:02;95115.09;;;14.40;48.38
84671;BME280;74898;42.716;23.624;2024-03-17T11:03:33;95113.03;;;14.42;46.30
84671;BME280;74898;42.716;23.624;2024-03-17T11:06:01;95110.69;;;14.40;46.26
84671;BME280;74898;42.716;23.624;2024-03-17T11:08:30;95099.22;;;14.72;47.02
84671;BME280;74898;42.716;23.624;2024-03-17T11:10:57;95100.16;;;14.89;45.07
84671;BME280;74898;42.716;23.624;2024-03-17T11:13:32;95099.75;;;15.04;46.34
84671;BME280;74898;42.716;23.624;2024-03-17T11:15:58;95089.31;;;15.16;43.42
84671;BME280;74898;42.716;23.624;2024-03-17T11:21:02;95092.06;;;14.67;44.00
84671;BME280;74898;42.716;23.624;2024-03-17T11:23:34;95086.06;;;14.55;44.08
84671;BME280;74898;42.716;23.624;2024-03-17T11:26:00;95091.00;;;14.75;43.72
84671;BME280;74898;42.716;23.624;2024-03-17T11:28:44;95087.38;;;14.99;43.18
84671;BME280;74898;42.716;23.624;2024-03-17T11:31:44;95090.66;;;14.95;44.01
84671;BME280;74898;42.716;23.624;2024-03-17T11:34:39;95086.81;;;15.09;41.66
84671;BME280;74898;42.716;23.624;2024-03-17T11:37:05;95088.50;;;14.91;40.49
84671;BME280;74898;42.716;23.624;2024-03-17T11:39:56;95079.88;;;14.91;42.70
84671;BME280;74898;42.716;23.624;2024-03-17T11:42:23;95080.13;;;15.01;41.63
84671;BME280;74898;42.716;23.624;2024-03-17T11:44:59;95074.22;;;14.82;44.55
84671;BME280;74898;42.716;23.624;2024-03-17T11:47:36;95081.16;;;15.00;42.96
84671;BME280;74898;42.716;23.624;2024-03-17T11:50:04;95080.22;;;14.95;43.86
84671;BME280;74898;42.716;23.624;2024-03-17T11:52:30;95072.88;;;15.03;43.33
84671;BME280;74898;42.716;23.624;2024-03-17T11:54:55;95069.47;;;15.38;43.13
84671;BME280;74898;42.716;23.624;2024-03-17T11:57:23;95059.59;;;15.28;40.92
84671;BME280;74898;42.716;23.624;2024-03-17T11:59:50;95074.00;;;15.31;41.73
84671;BME280;74898;42.716;23.624;2024-03-17T12:04:51;95069.56;;;14.84;42.47
84671;BME280;74898;42.716;23.624;2024-03-17T12:07:18;95065.72;;;14.99;42.40
84671;BME280;74898;42.716;23.624;2024-03-17T12:09:46;95059.28;;;15.13;43.11
84671;BME280;74898;42.716;23.624;2024-03-17T12:12:23;95067.19;;;14.95;42.31
84671;BME280;74898;42.716;23.624;2024-03-17T12:14:50;95066.63;;;14.93;44.64
84671;BME280;74898;42.716;23.624;2024-03-17T12:17:21;95065.03;;;14.91;43.92
84671;BME280;74898;42.716;23.624;2024-03-17T12:19:48;95065.28;;;15.13;43.70
84671;BME280;74898;42.716;23.624;2024-03-17T12:22:24;95058.81;;;15.04;44.49
84671;BME280;74898;42.716;23.624;2024-03-17T12:24:55;95063.00;;;15.17;43.14
84671;BME280;74898;42.716;23.624;2024-03-17T12:27:25;95060.34;;;14.58;42.76
84671;BME280;74898;42.716;23.624;2024-03-17T12:29:52;95056.59;;;14.54;43.89
84671;BME280;74898;42.716;23.624;2024-03-17T12:32:20;95061.13;;;14.59;45.57
84671;BME280;74898;42.716;23.624;2024-03-17T12:34:56;95055.34;;;14.57;45.31
84671;BME280;74898;42.716;23.624;2024-03-17T12:37:26;95056.22;;;14.51;46.67
84671;BME280;74898;42.716;23.624;2024-03-17T12:40:02;95060.31;;;14.16;45.16
84671;BME280;74898;42.716;23.624;2024-03-17T12:42:29;95054.72;;;13.82;44.10
84671;BME280;74898;42.716;23.624;2024-03-17T12:44:56;95047.16;;;13.63;43.97
84671;BME280;74898;42.716;23.624;2024-03-17T12:47:27;95056.31;;;13.28;45.05
84671;BME280;74898;42.716;23.624;2024-03-17T12:49:54;95059.50;;;13.05;46.11
84671;BME280;74898;42.716;23.624;2024-03-17T12:52:24;95057.78;;;12.99;46.35
84671;BME280;74898;42.716;23.624;2024-03-17T12:55:15;95046.84;;;12.90;47.57
84671;BME280;74898;42.716;23.624;2024-03-17T13:00:46;95059.97;;;12.77;48.02
84671;BME280;74898;42.716;23.624;2024-03-17T13:03:23;95050.81;;;12.68;46.71
84671;BME280;74898;42.716;23.624;2024-03-17T13:05:49;95051.69;;;12.62;47.80
84671;BME280;74898;42.716;23.624;2024-03-17T13:08:15;95044.53;;;12.57;47.61